Rodessa, Louisiana
Current Conditions -  °F | °C
As of 4:53 PM on Saturday 25 Oct 2014 (Local Time) from KTXK Reporting Station
Clear Clear  
Wind Chill: 83°   Ceiling: Unl
Heat Index: 84°   Visibility: 10mi
Dew Point: 63°   Wind: 9mph
Humidity: 51%   Direction: 220°SW
Pressure: 30.06"   Gusts: NA
Location:  32.97°N, 93.99°W
Report Text: KTXK 252153Z 22008KT 10SM CLR 28/17 A3006 RMK AO2 SLP174 T02830172
Loading
Personal Weather Stations






























Interactive Weather Map
Tropical Storm Tracking
New forecast layout! Learn more

10-Day Weather Forecast

Advertisements
Track Severe Weather on mobile